Time;durP1;ratioP1;P1;durP2;ratioP2;P2;SDS_P1;SDS_P2;PMS_P1;PMS_P2;Temp;Humidity;BMP_temperature;BMP_pressure;BME280_temperature;BME280_humidity;BME280_pressure;Samples;Min_cycle;Max_cycle;Signal;HPM_P1;HPM_P2
2022/06/02 00:01:20;;;;;;;5.03;3.97;;;10.80;99.90;;;;;;4806920;29;20178;-91
2022/06/02 00:03:49;;;;;;;4.93;4.40;;;10.80;99.90;;;;;;4806881;29;20183;-91
2022/06/02 00:06:37;;;;;;;4.70;4.20;;;10.80;99.90;;;;;;4806872;29;20269;-90
2022/06/02 00:09:17;;;;;;;5.60;4.70;;;10.80;99.90;;;;;;4807955;29;20611;-88
2022/06/02 00:11:54;;;;;;;5.50;4.45;;;10.70;99.90;;;;;;4806782;29;20182;-90
2022/06/02 00:14:45;;;;;;;5.40;4.13;;;10.70;99.90;;;;;;4811052;29;20206;-89
2022/06/02 00:17:10;;;;;;;6.45;4.10;;;10.60;99.90;;;;;;4810407;29;20659;-89
2022/06/02 00:20:13;;;;;;;5.40;4.13;;;10.70;99.90;;;;;;4809982;29;20235;-90
2022/06/02 00:23:34;;;;;;;4.90;4.22;;;10.60;99.90;;;;;;4810207;29;20194;-91
2022/06/02 00:26:39;;;;;;;4.60;4.00;;;10.60;99.90;;;;;;4794188;29;20189;-90
2022/06/02 00:29:30;;;;;;;6.47;3.65;;;10.50;99.90;;;;;;4792346;29;20203;-89
2022/06/02 00:32:14;;;;;;;5.07;3.80;;;10.50;99.90;;;;;;4792185;30;20534;-91
2022/06/02 00:34:47;;;;;;;5.95;3.83;;;10.50;99.90;;;;;;4793060;29;20497;-91
2022/06/02 00:37:29;;;;;;;7.38;3.70;;;10.50;99.90;;;;;;4791812;30;20222;-90
2022/06/02 00:39:55;;;;;;;5.03;4.10;;;10.50;99.90;;;;;;4791891;30;20207;-90
2022/06/02 00:42:24;;;;;;;7.75;3.90;;;10.50;99.90;;;;;;4791510;30;20210;-89
2022/06/02 00:45:13;;;;;;;4.22;3.83;;;10.40;99.90;;;;;;4791654;30;20226;-90
2022/06/02 00:48:30;;;;;;;5.80;3.30;;;10.40;99.90;;;;;;4793021;29;20182;-90
2022/06/02 00:51:03;;;;;;;4.70;4.00;;;10.40;99.90;;;;;;4791453;29;20644;-89
2022/06/02 00:57:30;;;;;;;5.32;3.85;;;10.40;99.90;;;;;;4791699;29;20187;-89
2022/06/02 00:59:56;;;;;;;5.05;3.60;;;10.40;99.90;;;;;;4810931;29;20560;-91
2022/06/02 01:02:23;;;;;;;5.03;3.50;;;10.30;99.90;;;;;;4809260;29;20191;-90
2022/06/02 01:04:49;;;;;;;4.88;3.75;;;10.30;99.90;;;;;;4809460;29;20623;-89
2022/06/02 01:07:21;;;;;;;4.82;3.80;;;10.20;99.90;;;;;;4810510;29;20204;-90
2022/06/02 01:10:28;;;;;;;8.95;3.75;;;10.10;99.90;;;;;;4809366;29;20186;-90
2022/06/02 01:13:12;;;;;;;6.03;4.20;;;10.10;99.90;;;;;;4810252;29;20278;-89
2022/06/02 01:15:55;;;;;;;4.43;3.60;;;10.10;99.90;;;;;;4810287;29;20208;-89
2022/06/02 01:18:35;;;;;;;6.87;3.90;;;10.10;99.90;;;;;;4809388;29;20642;-90
2022/06/02 01:21:20;;;;;;;4.43;3.87;;;10.00;99.90;;;;;;4809128;29;20236;-89
2022/06/02 01:24:05;;;;;;;4.88;4.28;;;10.00;99.90;;;;;;4808689;29;20284;-90
2022/06/02 01:26:51;;;;;;;4.30;3.90;;;10.00;99.90;;;;;;4808973;29;20217;-91
2022/06/02 01:29:16;;;;;;;4.15;3.75;;;10.00;99.90;;;;;;4808933;29;20179;-89
2022/06/02 01:32:01;;;;;;;5.13;4.23;;;10.00;99.90;;;;;;4809278;29;20186;-89
2022/06/02 01:34:47;;;;;;;4.80;4.30;;;9.90;99.90;;;;;;4808713;29;20186;-89
2022/06/02 01:37:34;;;;;;;4.87;4.23;;;9.90;99.90;;;;;;4808877;29;20301;-89
2022/06/02 01:40:32;;;;;;;4.83;4.23;;;9.90;99.90;;;;;;4809024;29;20171;-88
2022/06/02 01:43:27;;;;;;;8.67;4.43;;;9.90;99.90;;;;;;4808611;29;20186;-88
2022/06/02 01:46:41;;;;;;;5.17;4.67;;;9.90;99.90;;;;;;4808927;29;20182;-89
2022/06/02 01:49:22;;;;;;;5.10;4.40;;;9.90;99.90;;;;;;4792810;29;20650;-88
2022/06/02 01:51:48;;;;;;;5.78;4.32;;;9.90;99.90;;;;;;4799095;29;20195;-89
2022/06/02 01:54:32;;;;;;;7.03;4.50;;;9.90;99.90;;;;;;4815761;29;20220;-88
2022/06/02 01:57:01;;;;;;;6.80;4.50;;;9.90;99.90;;;;;;4818807;29;20225;-90
2022/06/02 01:59:29;;;;;;;7.07;4.80;;;9.80;99.90;;;;;;4827688;29;20186;-90
2022/06/02 02:02:07;;;;;;;7.05;4.40;;;9.80;99.90;;;;;;4826574;29;20186;-89
2022/06/02 02:05:01;;;;;;;5.60;4.97;;;9.70;99.90;;;;;;4826964;29;20186;-89
2022/06/02 02:10:34;;;;;;;6.47;5.20;;;9.70;99.90;;;;;;4789394;30;20296;-90
2022/06/02 02:13:31;;;;;;;5.40;4.87;;;9.70;99.90;;;;;;4789836;29;20517;-88
2022/06/02 02:16:30;;;;;;;6.83;5.17;;;9.70;99.90;;;;;;4805211;29;20219;-90
2022/06/02 02:19:35;;;;;;;7.23;5.67;;;9.70;99.90;;;;;;4790246;29;20187;-92
2022/06/02 02:22:48;;;;;;;6.60;5.40;;;9.70;99.90;;;;;;4791249;29;20623;-91
2022/06/02 02:25:52;;;;;;;8.13;5.60;;;9.70;99.90;;;;;;4805106;29;20195;-91
2022/06/02 02:28:34;;;;;;;10.90;5.10;;;9.60;99.90;;;;;;4791014;30;20210;-91
2022/06/02 02:31:09;;;;;;;5.93;5.00;;;9.60;99.90;;;;;;4790055;30;20186;-88
2022/06/02 02:33:47;;;;;;;5.73;5.23;;;9.50;99.90;;;;;;4805181;29;20195;-92
2022/06/02 02:36:40;;;;;;;7.60;5.40;;;9.50;99.90;;;;;;4789254;29;20560;-91
2022/06/02 02:39:16;;;;;;;8.07;6.43;;;9.40;99.90;;;;;;4790994;29;20268;-92
2022/06/02 02:42:06;;;;;;;8.27;6.63;;;9.40;99.90;;;;;;4805049;29;20183;-93
2022/06/02 02:45:00;;;;;;;10.07;6.90;;;9.30;99.90;;;;;;4789528;30;20191;-92
2022/06/02 02:47:37;;;;;;;9.37;7.17;;;9.30;99.90;;;;;;4804745;29;20274;-92
2022/06/02 02:50:10;;;;;;;12.50;6.77;;;9.30;99.90;;;;;;4789950;30;20269;-92
2022/06/02 02:52:45;;;;;;;7.37;6.60;;;9.30;99.90;;;;;;4790656;29;20179;-93
2022/06/02 02:55:19;;;;;;;9.77;6.63;;;9.30;99.90;;;;;;4804551;29;20183;-92
2022/06/02 02:58:06;;;;;;;9.40;5.90;;;9.30;99.90;;;;;;4803901;29;20638;-92
2022/06/02 03:00:49;;;;;;;7.20;6.30;;;9.30;99.90;;;;;;4808733;29;20174;-93
2022/06/02 03:03:29;;;;;;;6.70;6.00;;;9.20;99.90;;;;;;4808684;29;20216;-92
2022/06/02 03:06:24;;;;;;;8.87;6.03;;;9.30;99.90;;;;;;4807676;29;20255;-92
2022/06/02 03:08:59;;;;;;;7.10;6.17;;;9.30;99.90;;;;;;4807327;29;20283;-92
2022/06/02 03:11:50;;;;;;;7.10;6.40;;;9.20;99.90;;;;;;4807289;29;20178;-92
2022/06/02 03:14:41;;;;;;;7.57;6.70;;;9.20;99.90;;;;;;4807041;29;20192;-94
2022/06/02 03:17:28;;;;;;;6.30;5.70;;;9.20;99.90;;;;;;4807347;29;20301;-92
2022/06/02 03:20:06;;;;;;;6.47;5.77;;;9.20;99.90;;;;;;4807288;29;20649;-93
2022/06/02 03:22:58;;;;;;;7.90;6.83;;;9.20;99.90;;;;;;4807238;29;20187;-92
2022/06/02 03:25:27;;;;;;;7.53;6.27;;;9.10;99.90;;;;;;4807133;29;20183;-93
2022/06/02 03:28:13;;;;;;;7.67;6.53;;;9.10;99.90;;;;;;4807040;29;20178;-92
2022/06/02 03:30:53;;;;;;;7.10;6.10;;;9.10;99.90;;;;;;4807218;29;20194;-93
2022/06/02 03:33:28;;;;;;;6.80;6.03;;;9.10;99.90;;;;;;4807256;29;20189;-93
2022/06/02 03:36:12;;;;;;;5.97;5.37;;;9.10;99.90;;;;;;4806789;29;20218;-93
2022/06/02 03:39:01;;;;;;;8.10;6.50;;;9.10;99.90;;;;;;4808062;29;20167;-94
2022/06/02 03:41:46;;;;;;;8.43;6.77;;;9.10;99.90;;;;;;4806455;29;20194;-91
2022/06/02 03:44:23;;;;;;;8.23;6.93;;;9.10;99.90;;;;;;4807887;29;20190;-88
2022/06/02 03:47:05;;;;;;;9.07;6.73;;;9.10;99.90;;;;;;4808061;29;20169;-92
2022/06/02 03:49:50;;;;;;;7.30;6.43;;;9.10;99.90;;;;;;4807355;29;20193;-91
2022/06/02 03:52:32;;;;;;;10.57;6.70;;;9.10;99.90;;;;;;4806975;29;20190;-92
2022/06/02 03:55:19;;;;;;;8.20;6.50;;;9.10;99.90;;;;;;4806818;29;20175;-93
2022/06/02 03:58:03;;;;;;;8.17;6.50;;;9.10;99.90;;;;;;4791891;29;20220;-92
2022/06/02 04:00:49;;;;;;;10.23;6.47;;;9.10;99.90;;;;;;4789930;30;20167;-94
2022/06/02 04:03:53;;;;;;;8.37;6.57;;;9.10;99.90;;;;;;4788867;29;20198;-94
2022/06/02 04:06:24;;;;;;;9.10;6.70;;;9.00;99.90;;;;;;4788396;30;20187;-93
2022/06/02 04:09:02;;;;;;;8.37;6.70;;;9.10;99.90;;;;;;4788608;29;20576;-92
2022/06/02 04:15:02;;;;;;;9.33;7.37;;;9.10;99.90;;;;;;4789703;30;20499;-93
2022/06/02 04:17:55;;;;;;;7.57;6.73;;;9.20;99.90;;;;;;4788865;30;20215;-95
2022/06/02 04:20:45;;;;;;;7.30;6.50;;;9.20;99.90;;;;;;4788846;30;20176;-92
2022/06/02 04:23:52;;;;;;;8.07;6.50;;;9.30;99.90;;;;;;4788509;30;20651;-92
2022/06/02 04:26:42;;;;;;;10.80;7.87;;;9.30;99.90;;;;;;4792076;29;20194;-93
2022/06/02 04:29:08;;;;;;;10.07;7.03;;;9.30;99.90;;;;;;4807731;29;20192;-93
2022/06/02 04:32:03;;;;;;;9.03;7.20;;;9.40;99.90;;;;;;4806518;29;20198;-94
2022/06/02 04:35:06;;;;;;;8.73;7.50;;;9.30;99.90;;;;;;4807568;29;20212;-94
2022/06/02 04:38:04;;;;;;;8.77;6.83;;;9.40;99.90;;;;;;4799431;29;20670;-94
2022/06/02 04:41:10;;;;;;;9.37;7.40;;;9.40;99.90;;;;;;4806736;29;20243;-94
2022/06/02 04:44:13;;;;;;;9.03;7.00;;;9.50;99.90;;;;;;4806421;29;20187;-95
2022/06/02 04:46:59;;;;;;;7.10;6.40;;;9.60;99.90;;;;;;4806759;29;20251;-93
2022/06/02 04:49:53;;;;;;;8.90;7.20;;;9.70;99.90;;;;;;4806488;29;20194;-94
2022/06/02 04:52:41;;;;;;;8.87;7.30;;;9.80;99.90;;;;;;4806421;29;20191;-94
2022/06/02 04:55:26;;;;;;;9.83;7.57;;;9.80;99.90;;;;;;4806552;29;20186;-95
2022/06/02 04:58:03;;;;;;;9.07;7.43;;;9.90;99.90;;;;;;4790563;29;20223;-92
2022/06/02 05:00:35;;;;;;;8.60;7.70;;;10.00;99.90;;;;;;4792814;30;20175;-94
2022/06/02 05:03:33;;;;;;;8.35;7.38;;;10.00;99.90;;;;;;4791455;30;20608;-95
2022/06/02 05:06:06;;;;;;;8.75;7.07;;;10.10;99.90;;;;;;4794212;29;20222;-93
2022/06/02 05:08:35;;;;;;;9.85;7.55;;;10.10;99.90;;;;;;4791392;30;20671;-93
2022/06/02 05:11:17;;;;;;;8.88;7.97;;;10.20;99.90;;;;;;4791554;30;20191;-94
2022/06/02 05:14:12;;;;;;;9.35;7.93;;;10.20;99.90;;;;;;4790531;30;20214;-93
2022/06/02 05:16:44;;;;;;;8.13;7.13;;;10.30;99.90;;;;;;4773195;29;20212;-93
2022/06/02 05:19:41;;;;;;;9.60;8.17;;;10.40;99.90;;;;;;4772778;30;20180;-93
2022/06/02 05:22:43;;;;;;;14.07;8.47;;;10.40;99.90;;;;;;4788049;29;20191;-92
2022/06/02 05:25:12;;;;;;;10.02;8.43;;;10.40;99.90;;;;;;4787997;29;20176;-92
2022/06/02 05:28:10;;;;;;;10.38;8.77;;;10.50;99.90;;;;;;4815393;29;20186;-89
2022/06/02 05:31:01;;;;;;;10.95;9.10;;;10.50;99.90;;;;;;4801242;29;20248;-92
2022/06/02 05:34:11;;;;;;;11.77;8.82;;;10.60;99.90;;;;;;4809720;29;20694;-92
2022/06/02 05:36:49;;;;;;;11.93;10.20;;;10.70;99.90;;;;;;4810200;29;20738;-90
2022/06/02 05:39:23;;;;;;;10.85;9.43;;;10.70;99.90;;;;;;4791813;29;20623;-87
2022/06/02 05:42:18;;;;;;;13.77;10.68;;;10.80;99.90;;;;;;4791605;29;20187;-91
2022/06/02 05:45:03;;;;;;;12.18;10.88;;;10.90;99.90;;;;;;4792340;29;20213;-91
2022/06/02 05:47:43;;;;;;;12.45;10.95;;;11.00;99.90;;;;;;4808770;29;20193;-88
2022/06/02 05:50:20;;;;;;;12.38;10.80;;;11.10;99.90;;;;;;4809677;29;20174;-90
2022/06/02 05:52:55;;;;;;;13.82;12.10;;;11.10;99.90;;;;;;4809690;29;20258;-89
2022/06/02 05:55:27;;;;;;;14.45;12.68;;;11.20;99.90;;;;;;4807306;29;20246;-89
2022/06/02 05:58:02;;;;;;;13.95;11.70;;;11.30;99.90;;;;;;4806362;29;20205;-87
2022/06/02 06:00:39;;;;;;;12.52;11.15;;;11.30;99.90;;;;;;4808696;29;20499;-86
2022/06/02 06:03:43;;;;;;;15.98;11.57;;;11.40;99.90;;;;;;4792597;29;20269;-88
2022/06/02 06:06:19;;;;;;;14.27;11.93;;;11.50;99.90;;;;;;4791587;29;20495;-87
2022/06/02 06:09:03;;;;;;;13.82;12.02;;;11.50;99.90;;;;;;4791215;29;20231;-88
2022/06/02 06:11:57;;;;;;;16.48;12.07;;;11.50;99.90;;;;;;4789288;29;20194;-85
2022/06/02 06:14:25;;;;;;;14.27;12.60;;;11.50;99.90;;;;;;4789458;29;20644;-87
2022/06/02 06:16:54;;;;;;;13.27;11.77;;;11.60;99.90;;;;;;4790164;30;20647;-87
2022/06/02 06:19:42;;;;;;;11.57;10.18;;;11.70;99.90;;;;;;4790236;30;20195;-89
2022/06/02 06:22:35;;;;;;;10.65;9.13;;;11.70;99.90;;;;;;4789338;29;20195;-86
2022/06/02 06:25:14;;;;;;;16.15;10.73;;;11.80;99.90;;;;;;4804951;29;20207;-86
2022/06/02 06:28:11;;;;;;;12.68;11.35;;;11.80;99.90;;;;;;4817703;29;20194;-85
2022/06/02 06:30:56;;;;;;;13.35;11.13;;;11.90;99.90;;;;;;4790487;29;20187;-86
2022/06/02 06:33:41;;;;;;;12.80;11.13;;;12.00;99.90;;;;;;4819310;29;20701;-86
2022/06/02 06:36:40;;;;;;;12.30;9.60;;;12.10;99.90;;;;;;4789246;30;20227;-85
2022/06/02 06:39:15;;;;;;;11.27;10.05;;;12.20;99.90;;;;;;4789833;30;20192;-86
2022/06/02 06:41:44;;;;;;;15.32;12.07;;;12.30;99.90;;;;;;4790867;29;20212;-85
2022/06/02 06:44:26;;;;;;;12.35;10.35;;;12.40;99.90;;;;;;4789595;30;20188;-85
2022/06/02 06:47:03;;;;;;;11.40;10.20;;;12.50;99.90;;;;;;4789793;30;20544;-86
2022/06/02 06:50:10;;;;;;;12.23;9.70;;;12.50;99.90;;;;;;4789476;30;20195;-86
2022/06/02 06:53:06;;;;;;;12.05;10.75;;;12.60;99.90;;;;;;4809616;29;20182;-86
2022/06/02 06:55:50;;;;;;;14.15;11.07;;;12.70;99.90;;;;;;4789479;29;20210;-86
2022/06/02 06:58:53;;;;;;;12.45;10.52;;;12.80;99.90;;;;;;4771323;30;20207;-85
2022/06/02 07:01:37;;;;;;;12.77;10.50;;;13.00;99.90;;;;;;4788912;29;20194;-84
2022/06/02 07:04:11;;;;;;;11.52;10.30;;;13.10;99.90;;;;;;4790067;29;20242;-84
2022/06/02 07:06:48;;;;;;;13.15;10.75;;;13.10;99.90;;;;;;4790394;29;20259;-85
2022/06/02 07:09:33;;;;;;;12.70;10.35;;;13.10;99.90;;;;;;4788718;30;20331;-86
2022/06/02 07:15:17;;;;;;;12.10;10.40;;;13.00;99.90;;;;;;4789903;30;20212;-85
2022/06/02 07:17:53;;;;;;;12.77;9.30;;;13.10;99.90;;;;;;4788871;30;20275;-86
2022/06/02 07:20:26;;;;;;;9.23;8.32;;;13.10;99.90;;;;;;4790065;29;20674;-86
2022/06/02 07:23:10;;;;;;;13.02;7.35;;;13.30;99.90;;;;;;4789580;29;20186;-83
2022/06/02 07:26:08;;;;;;;8.85;7.57;;;13.40;99.90;;;;;;4788468;30;20190;-84
2022/06/02 07:28:48;;;;;;;11.20;7.18;;;13.40;99.90;;;;;;4771754;30;20483;-85
2022/06/02 07:31:44;;;;;;;9.05;8.15;;;13.30;99.90;;;;;;4798293;29;20191;-84
2022/06/02 07:34:47;;;;;;;9.32;7.80;;;13.50;99.90;;;;;;4769831;30;20199;-83
2022/06/02 07:37:16;;;;;;;9.93;7.72;;;13.60;99.90;;;;;;4789544;29;20296;-84
2022/06/02 07:40:15;;;;;;;6.28;5.63;;;13.70;99.90;;;;;;4788131;30;20224;-86
2022/06/02 07:43:16;;;;;;;7.72;5.43;;;13.90;99.90;;;;;;4788502;30;20247;-84
2022/06/02 07:45:59;;;;;;;9.80;6.32;;;14.10;99.90;;;;;;4789486;29;20179;-84
2022/06/02 07:48:51;;;;;;;7.13;5.85;;;14.00;99.90;;;;;;4789406;29;20263;-84
2022/06/02 07:51:46;;;;;;;10.27;6.18;;;14.00;99.90;;;;;;4788301;30;20206;-84
2022/06/02 07:54:40;;;;;;;9.73;6.75;;;14.20;99.90;;;;;;4800650;29;20464;-85
2022/06/02 07:57:24;;;;;;;13.52;5.95;;;14.30;99.90;;;;;;4797583;29;20234;-84
2022/06/02 08:00:32;;;;;;;8.48;4.65;;;14.30;99.90;;;;;;4788210;30;20176;-83
2022/06/02 08:03:10;;;;;;;5.43;4.70;;;14.60;99.90;;;;;;4754525;30;20218;-83
2022/06/02 08:05:39;;;;;;;6.70;4.60;;;14.80;99.90;;;;;;4769383;30;20183;-83
2022/06/02 08:08:20;;;;;;;5.15;4.38;;;15.00;99.90;;;;;;4787540;29;20616;-83
2022/06/02 08:11:01;;;;;;;7.85;4.65;;;15.30;99.90;;;;;;4795971;29;20191;-83
2022/06/02 08:13:46;;;;;;;6.90;3.97;;;15.50;99.90;;;;;;4794262;29;20195;-84
2022/06/02 08:17:02;;;;;;;5.88;4.60;;;15.80;99.90;;;;;;4774806;30;20357;-84
2022/06/02 08:19:50;;;;;;;5.78;3.22;;;15.90;99.90;;;;;;4787822;30;20538;-84
2022/06/02 08:22:30;;;;;;;4.30;3.45;;;16.00;99.90;;;;;;4789940;29;20230;-85
2022/06/02 08:25:22;;;;;;;4.43;4.00;;;16.00;99.90;;;;;;4787795;30;20511;-84
2022/06/02 08:28:12;;;;;;;7.85;3.78;;;16.00;99.90;;;;;;4796132;29;20194;-83
2022/06/02 08:30:48;;;;;;;6.00;3.28;;;16.20;99.90;;;;;;4787728;30;20186;-83
2022/06/02 08:33:42;;;;;;;6.22;3.25;;;16.30;99.90;;;;;;4787906;29;20646;-82
2022/06/02 08:36:12;;;;;;;3.47;3.03;;;16.40;99.90;;;;;;4791217;30;20223;-84
2022/06/02 08:38:56;;;;;;;6.95;3.35;;;16.40;99.90;;;;;;4792472;29;20186;-84
2022/06/02 08:41:59;;;;;;;4.40;3.78;;;16.50;99.90;;;;;;4792442;29;20179;-83
2022/06/02 08:44:36;;;;;;;3.92;2.50;;;16.30;99.90;;;;;;4790277;30;20282;-82
2022/06/02 08:47:39;;;;;;;3.95;1.88;;;16.50;99.90;;;;;;4790957;30;20183;-83
2022/06/02 08:50:26;;;;;;;2.67;2.22;;;16.50;99.90;;;;;;4790603;30;20187;-83
2022/06/02 08:53:15;;;;;;;9.85;2.63;;;16.70;99.90;;;;;;4790962;30;20267;-83
2022/06/02 08:56:07;;;;;;;2.55;1.92;;;16.70;99.90;;;;;;4794629;29;20190;-85
2022/06/02 08:58:58;;;;;;;5.50;4.03;;;16.60;99.90;;;;;;4791031;30;20248;-84
2022/06/02 09:01:48;;;;;;;4.30;3.70;;;16.20;99.90;;;;;;4791826;29;20254;-83
2022/06/02 09:04:38;;;;;;;7.47;3.13;;;15.80;99.90;;;;;;4796060;29;20664;-84
2022/06/02 09:07:19;;;;;;;4.55;3.30;;;15.80;99.90;;;;;;4808725;29;20523;-84
2022/06/02 09:10:19;;;;;;;3.13;2.83;;;16.10;99.90;;;;;;4807683;29;20241;-84
2022/06/02 09:13:14;;;;;;;5.43;3.15;;;16.50;99.90;;;;;;4791718;29;20206;-83
2022/06/02 09:16:17;;;;;;;3.17;2.40;;;16.90;99.90;;;;;;4791419;29;20207;-84
2022/06/02 09:19:14;;;;;;;2.42;1.70;;;16.90;99.90;;;;;;4791711;29;20175;-85
2022/06/02 09:21:45;;;;;;;3.58;3.10;;;16.70;99.90;;;;;;4791523;29;20194;-83
2022/06/02 09:24:26;;;;;;;4.65;3.10;;;16.30;99.90;;;;;;4790577;30;20187;-81
2022/06/02 09:27:23;;;;;;;4.50;2.90;;;16.20;99.90;;;;;;4797571;29;20186;-82
2022/06/02 09:29:50;;;;;;;3.47;2.20;;;16.50;99.90;;;;;;4789779;30;20199;-83
2022/06/02 09:32:50;;;;;;;3.83;1.85;;;16.70;99.90;;;;;;4790102;29;20190;-83
2022/06/02 09:35:23;;;;;;;4.60;2.10;;;16.80;99.90;;;;;;4791163;29;20236;-84
2022/06/02 09:37:48;;;;;;;2.38;1.70;;;16.60;99.90;;;;;;4791346;29;20341;-84
2022/06/02 09:40:21;;;;;;;2.72;1.85;;;16.20;99.90;;;;;;4791524;30;20217;-85
2022/06/02 09:43:38;;;;;;;3.78;1.70;;;16.10;99.90;;;;;;4790525;30;20198;-84
2022/06/02 09:46:24;;;;;;;2.92;1.58;;;16.30;99.90;;;;;;4780579;29;20208;-85
2022/06/02 09:49:28;;;;;;;4.30;1.75;;;16.80;99.90;;;;;;4788572;30;20194;-84
2022/06/02 09:52:19;;;;;;;2.60;1.90;;;17.20;99.90;;;;;;4792796;29;20199;-84
2022/06/02 09:54:50;;;;;;;4.10;1.50;;;17.10;99.90;;;;;;4815753;29;20303;-85
2022/06/02 10:00:39;;;;;;;4.38;1.90;;;16.90;99.90;;;;;;4790365;29;20306;-86
2022/06/02 10:03:17;;;;;;;2.00;1.65;;;17.20;99.60;;;;;;4784746;29;20206;-81
2022/06/02 10:05:52;;;;;;;2.78;2.03;;;17.40;99.60;;;;;;4790466;30;20186;-82
2022/06/02 10:08:26;;;;;;;2.25;2.00;;;17.50;99.90;;;;;;4792469;29;20269;-81
2022/06/02 10:11:10;;;;;;;5.30;1.90;;;17.70;99.90;;;;;;4789894;29;20194;-82
2022/06/02 10:14:02;;;;;;;2.75;1.80;;;17.80;99.90;;;;;;4789697;29;20539;-85
2022/06/02 10:16:46;;;;;;;3.05;2.22;;;17.90;99.10;;;;;;4789676;30;20215;-84
2022/06/02 10:19:17;;;;;;;2.22;2.03;;;17.90;98.30;;;;;;4789508;30;20183;-82
2022/06/02 10:22:23;;;;;;;2.22;1.80;;;18.20;98.30;;;;;;4789449;30;20187;-85
2022/06/02 10:25:05;;;;;;;2.15;1.95;;;18.30;98.80;;;;;;4791256;29;20195;-82
2022/06/02 10:28:09;;;;;;;2.88;2.00;;;18.50;98.70;;;;;;4789685;30;20205;-84
2022/06/02 10:31:09;;;;;;;4.35;2.40;;;18.50;99.40;;;;;;4795722;29;20205;-86
2022/06/02 10:33:53;;;;;;;2.80;2.40;;;18.70;98.10;;;;;;4807560;29;20289;-86
2022/06/02 10:36:37;;;;;;;3.30;2.15;;;19.00;99.10;;;;;;4807543;29;20662;-86
2022/06/02 10:39:31;;;;;;;2.38;1.40;;;19.00;98.10;;;;;;4791709;29;20281;-84
2022/06/02 10:42:06;;;;;;;2.13;1.50;;;18.90;98.20;;;;;;4790491;29;20189;-83
2022/06/02 10:44:59;;;;;;;2.47;1.67;;;18.90;97.10;;;;;;4788953;29;20634;-81
2022/06/02 10:48:02;;;;;;;2.03;1.63;;;18.90;97.10;;;;;;4790563;29;20176;-87
2022/06/02 10:50:55;;;;;;;1.70;1.20;;;18.40;97.10;;;;;;4789376;29;20277;-86
2022/06/02 10:53:41;;;;;;;2.08;1.10;;;18.30;95.90;;;;;;4789438;29;20183;-86
2022/06/02 10:56:38;;;;;;;1.45;1.10;;;18.20;95.50;;;;;;4794604;29;20218;-83
2022/06/02 10:59:33;;;;;;;1.05;0.95;;;18.30;95.30;;;;;;4807919;29;20190;-86
2022/06/02 11:02:08;;;;;;;1.70;1.50;;;18.30;95.90;;;;;;4808499;29;20312;-87
2022/06/02 11:05:08;;;;;;;3.30;1.58;;;18.20;98.80;;;;;;4808383;29;20477;-86
2022/06/02 11:08:15;;;;;;;3.75;1.40;;;18.60;97.70;;;;;;4806522;29;20183;-81
2022/06/02 11:10:46;;;;;;;2.25;1.23;;;18.70;96.80;;;;;;4807682;29;20246;-81
2022/06/02 11:13:22;;;;;;;2.15;1.25;;;18.80;96.40;;;;;;4806428;29;20235;-82
2022/06/02 11:16:19;;;;;;;3.70;1.40;;;18.60;96.40;;;;;;4807137;29;20243;-82
2022/06/02 11:18:50;;;;;;;1.05;0.80;;;18.80;96.50;;;;;;4807692;29;20218;-84
2022/06/02 11:21:46;;;;;;;1.13;1.02;;;18.90;96.70;;;;;;4807910;29;20174;-83
2022/06/02 11:25:02;;;;;;;4.82;1.00;;;18.90;95.20;;;;;;4806311;29;20194;-82
2022/06/02 11:27:53;;;;;;;2.92;1.00;;;18.90;94.90;;;;;;4798473;29;20209;-81
2022/06/02 11:30:25;;;;;;;2.40;1.10;;;18.90;95.90;;;;;;4800947;29;20265;-84
2022/06/02 11:33:27;;;;;;;2.38;0.90;;;19.20;96.50;;;;;;4788284;30;20611;-82
2022/06/02 11:36:15;;;;;;;2.08;1.00;;;19.10;95.20;;;;;;4788218;29;20186;-83
2022/06/02 11:39:17;;;;;;;2.17;0.98;;;18.90;96.20;;;;;;4788025;30;20185;-82
2022/06/02 11:42:20;;;;;;;1.80;1.00;;;18.70;94.70;;;;;;4788266;30;20178;-82
2022/06/02 11:45:02;;;;;;;1.58;0.80;;;18.40;95.30;;;;;;4787708;30;20212;-82
2022/06/02 11:47:28;;;;;;;2.15;0.40;;;18.20;95.90;;;;;;4788021;30;20207;-81
2022/06/02 11:50:33;;;;;;;1.00;0.80;;;18.30;94.70;;;;;;4789251;29;20576;-82
2022/06/02 11:53:09;;;;;;;2.33;0.70;;;18.40;94.70;;;;;;4788020;29;20224;-81
2022/06/02 11:55:38;;;;;;;1.73;1.00;;;18.30;97.00;;;;;;4788943;29;20178;-82
2022/06/02 11:58:24;;;;;;;2.60;0.98;;;18.50;97.20;;;;;;4804843;29;20505;-82
2022/06/02 12:01:35;;;;;;;1.77;0.80;;;18.60;96.70;;;;;;4806955;29;20246;-84
2022/06/02 12:04:17;;;;;;;1.27;0.60;;;18.60;96.60;;;;;;4788542;29;20183;-82
2022/06/02 12:07:05;;;;;;;1.70;0.60;;;18.50;95.50;;;;;;4802790;29;20616;-82
2022/06/02 12:09:58;;;;;;;2.65;0.70;;;18.40;96.00;;;;;;4791024;29;20238;-82
2022/06/02 12:12:45;;;;;;;1.10;0.73;;;18.40;96.30;;;;;;4791286;29;20304;-81
2022/06/02 12:15:16;;;;;;;1.50;0.70;;;18.60;96.20;;;;;;4790198;29;20210;-82
2022/06/02 12:18:21;;;;;;;1.70;0.90;;;18.70;97.40;;;;;;4791242;30;20241;-81
2022/06/02 12:21:05;;;;;;;1.85;0.60;;;18.90;95.80;;;;;;4826597;29;20190;-81
2022/06/02 12:23:49;;;;;;;2.67;0.80;;;18.90;94.20;;;;;;4794237;29;20203;-81
2022/06/02 12:26:53;;;;;;;0.80;0.70;;;18.60;95.30;;;;;;4795678;29;20277;-83
2022/06/02 12:29:50;;;;;;;3.13;0.80;;;18.60;94.60;;;;;;4793774;29;20643;-82
2022/06/02 12:32:53;;;;;;;1.17;0.68;;;18.50;95.20;;;;;;4791167;30;20226;-81
2022/06/02 12:35:28;;;;;;;1.40;0.60;;;18.50;95.90;;;;;;4790895;30;20636;-83
2022/06/02 12:38:18;;;;;;;1.45;0.70;;;18.40;95.40;;;;;;4790874;30;20234;-84
2022/06/02 12:41:17;;;;;;;0.90;0.70;;;18.50;95.90;;;;;;4791010;30;20184;-81
2022/06/02 12:44:12;;;;;;;1.65;0.60;;;19.00;96.30;;;;;;4790751;30;20183;-83
2022/06/02 12:47:15;;;;;;;1.55;0.80;;;18.90;93.90;;;;;;4791202;30;20222;-81
2022/06/02 12:50:05;;;;;;;1.95;0.52;;;18.70;94.40;;;;;;4791923;29;20179;-81
2022/06/02 12:52:42;;;;;;;2.90;0.70;;;19.00;97.10;;;;;;4792286;29;20202;-83
2022/06/02 12:55:38;;;;;;;2.75;0.70;;;19.40;95.10;;;;;;4790647;30;20175;-82
2022/06/02 12:58:23;;;;;;;1.45;0.77;;;19.70;94.70;;;;;;4801590;29;20211;-82
2022/06/02 13:01:13;;;;;;;2.35;0.77;;;19.80;94.30;;;;;;4791848;29;20179;-83
2022/06/02 13:03:54;;;;;;;2.28;0.80;;;19.70;93.60;;;;;;4790412;29;20183;-82
2022/06/02 13:06:38;;;;;;;0.65;0.60;;;19.40;94.30;;;;;;4790306;30;20214;-80
2022/06/02 13:09:37;;;;;;;1.27;0.80;;;19.50;96.00;;;;;;4790017;30;20709;-84
2022/06/02 13:12:25;;;;;;;1.75;0.60;;;19.80;93.60;;;;;;4774397;29;20283;-82
2022/06/02 13:14:57;;;;;;;1.20;0.60;;;19.70;93.60;;;;;;4791147;29;20520;-81
2022/06/02 13:17:57;;;;;;;0.98;0.57;;;19.50;95.30;;;;;;4791391;29;20352;-81
2022/06/02 13:20:41;;;;;;;1.38;0.73;;;19.50;92.40;;;;;;4789829;29;20286;-82
2022/06/02 13:23:31;;;;;;;1.05;0.65;;;19.30;93.90;;;;;;4792883;29;20189;-81
2022/06/02 13:26:16;;;;;;;3.90;0.98;;;19.30;95.00;;;;;;4809498;29;20171;-81
2022/06/02 13:28:58;;;;;;;1.13;0.70;;;19.30;95.30;;;;;;4805747;29;20272;-84
2022/06/02 13:31:58;;;;;;;4.60;0.70;;;19.50;94.70;;;;;;4791289;29;20321;-80
2022/06/02 13:34:51;;;;;;;0.85;0.60;;;19.60;94.60;;;;;;4789717;30;20266;-81
2022/06/02 13:37:29;;;;;;;2.58;0.57;;;19.40;94.30;;;;;;4789593;29;20215;-81
2022/06/02 13:40:33;;;;;;;1.10;0.65;;;19.40;94.70;;;;;;4789211;29;20199;-83
2022/06/02 13:43:20;;;;;;;0.70;0.57;;;19.10;93.00;;;;;;4789550;30;20628;-82
2022/06/02 13:46:22;;;;;;;2.58;0.60;;;18.80;93.10;;;;;;4789861;30;20191;-81
2022/06/02 13:49:22;;;;;;;3.80;0.80;;;18.60;93.00;;;;;;4772329;30;20180;-80
2022/06/02 13:52:06;;;;;;;1.02;0.60;;;18.40;92.50;;;;;;4773525;30;20176;-86
2022/06/02 13:58:01;;;;;;;1.25;0.70;;;18.30;94.30;;;;;;4790868;29;20230;-85
2022/06/02 14:01:17;;;;;;;2.13;1.00;;;18.30;95.80;;;;;;4791076;29;20175;-83
2022/06/02 14:04:17;;;;;;;0.93;0.75;;;18.20;96.20;;;;;;4796912;29;20288;-84
2022/06/02 14:06:51;;;;;;;2.25;0.95;;;18.20;96.50;;;;;;4789547;29;20191;-82
2022/06/02 14:09:36;;;;;;;3.05;0.90;;;18.20;96.00;;;;;;4789898;29;20300;-83
2022/06/02 14:12:20;;;;;;;1.65;0.77;;;18.10;97.00;;;;;;4790923;29;20514;-83
2022/06/02 14:15:09;;;;;;;0.90;0.60;;;18.10;96.40;;;;;;4789005;30;20529;-84
2022/06/02 14:17:53;;;;;;;2.85;0.70;;;18.10;97.50;;;;;;4789430;30;20607;-83
2022/06/02 14:20:22;;;;;;;3.55;0.70;;;18.30;96.70;;;;;;4789287;30;20678;-84
2022/06/02 14:22:53;;;;;;;1.17;0.60;;;18.40;96.60;;;;;;4791763;29;20211;-82
2022/06/02 14:25:46;;;;;;;0.82;0.60;;;18.40;96.50;;;;;;4807058;29;20615;-83
2022/06/02 14:28:30;;;;;;;1.70;0.60;;;18.50;96.20;;;;;;4807099;29;20183;-83
2022/06/02 14:31:19;;;;;;;0.70;0.70;;;18.60;95.40;;;;;;4793857;29;20270;-83
2022/06/02 14:33:55;;;;;;;1.50;0.70;;;18.70;93.90;;;;;;4788576;30;20183;-83
2022/06/02 14:36:55;;;;;;;0.60;0.60;;;19.20;95.70;;;;;;4789968;29;20664;-83
2022/06/02 14:39:59;;;;;;;1.40;0.70;;;19.50;92.40;;;;;;4777240;29;20210;-83
2022/06/02 14:43:04;;;;;;;1.40;0.88;;;19.30;94.50;;;;;;4787239;30;20663;-82
2022/06/02 14:46:00;;;;;;;2.97;0.65;;;19.40;95.20;;;;;;4770859;29;20196;-81